createdAt,value
2023-02-19T00:03:14.430Z,90.12
2023-02-19T00:08:17.048Z,90.08
2023-02-19T00:13:19.809Z,90.35
2023-02-19T00:18:23.325Z,90.30
2023-02-19T00:23:27.059Z,90.53
2023-02-19T00:28:30.780Z,90.69
2023-02-19T00:33:36.504Z,90.67
2023-02-19T00:38:40.508Z,90.81
2023-02-19T00:43:43.184Z,90.91
2023-02-19T00:48:46.675Z,90.97
2023-02-19T00:53:49.641Z,90.90
2023-02-19T00:58:52.613Z,90.84
2023-02-19T01:03:55.430Z,91.02
2023-02-19T01:08:58.832Z,91.16
2023-02-19T01:14:02.346Z,91.63
2023-02-19T01:19:04.962Z,92.47
2023-02-19T01:24:07.609Z,92.64
2023-02-19T01:29:10.520Z,92.70
2023-02-19T01:34:13.157Z,92.70
2023-02-19T01:39:15.842Z,92.96
2023-02-19T01:44:18.511Z,93.25
2023-02-19T01:49:27.115Z,93.36
2023-02-19T01:54:34.804Z,93.10
2023-02-19T01:59:38.226Z,93.31
2023-02-19T02:04:41.005Z,93.36
2023-02-19T02:09:59.517Z,93.28
2023-02-19T02:15:03.120Z,93.26
2023-02-19T02:20:36.540Z,93.23
2023-02-19T02:25:55.265Z,93.24
2023-02-19T02:31:04.409Z,92.98
2023-02-19T02:36:14.712Z,92.75
2023-02-19T02:41:17.358Z,92.53
2023-02-19T02:46:28.175Z,92.21
2023-02-19T02:51:36.259Z,92.02
2023-02-19T02:56:41.333Z,91.78
2023-02-19T03:02:05.875Z,91.54
2023-02-19T03:07:10.448Z,91.37
2023-02-19T03:12:30.501Z,91.17
2023-02-19T03:17:57.874Z,90.84
2023-02-19T03:23:02.078Z,90.83
2023-02-19T03:28:08.790Z,90.62
2023-02-19T03:33:19.064Z,90.39
2023-02-19T03:38:40.716Z,90.26
2023-02-19T03:43:50.800Z,90.32
2023-02-19T03:49:00.107Z,90.36
2023-02-19T03:54:09.270Z,90.26
2023-02-19T03:59:17.358Z,90.21
2023-02-19T04:04:36.479Z,90.08
2023-02-19T04:09:46.820Z,89.87
2023-02-19T04:14:54.790Z,89.65
2023-02-19T04:20:00.817Z,89.52
2023-02-19T04:25:05.245Z,89.43
2023-02-19T04:30:11.282Z,89.27
2023-02-19T04:35:13.979Z,89.24
2023-02-19T04:40:17.229Z,89.20
2023-02-19T04:45:19.779Z,89.13
2023-02-19T04:50:23.310Z,88.96
2023-02-19T04:55:26.149Z,88.87
2023-02-19T05:00:28.740Z,88.79
2023-02-19T05:05:31.575Z,88.94
2023-02-19T05:10:34.732Z,89.14
2023-02-19T05:15:37.387Z,89.20
2023-02-19T05:20:40.085Z,89.23
2023-02-19T05:25:42.724Z,89.33
2023-02-19T05:30:51.433Z,89.30
2023-02-19T05:35:55.986Z,89.36
2023-02-19T05:41:16.943Z,89.41
2023-02-19T05:46:22.840Z,89.48
2023-02-19T05:51:27.448Z,89.51
2023-02-19T05:56:33.253Z,89.47
2023-02-19T06:01:36.175Z,89.44
2023-02-19T06:06:39.276Z,89.39
2023-02-19T06:11:43.360Z,89.38
2023-02-19T06:16:46.054Z,89.33
2023-02-19T06:21:50.357Z,89.40
2023-02-19T06:26:52.943Z,89.37
2023-02-19T06:31:55.725Z,89.52
2023-02-19T06:36:59.256Z,89.50
2023-02-19T06:42:01.825Z,89.18
2023-02-19T06:47:05.464Z,88.92
2023-02-19T06:52:08.182Z,88.51
2023-02-19T06:57:10.778Z,88.32
2023-02-19T07:02:13.701Z,87.80
2023-02-19T07:07:17.638Z,87.46
2023-02-19T07:12:20.224Z,87.63
2023-02-19T07:17:22.820Z,87.28
2023-02-19T07:22:25.673Z,87.02
2023-02-19T07:27:28.300Z,86.91
2023-02-19T07:32:31.006Z,86.74
2023-02-19T07:37:34.696Z,86.67
2023-02-19T07:42:37.728Z,86.60
2023-02-19T07:47:40.377Z,86.50
2023-02-19T07:52:43.100Z,86.52
2023-02-19T07:57:45.731Z,86.48
2023-02-19T08:03:04.430Z,86.27
2023-02-19T08:08:09.615Z,85.55
2023-02-19T08:13:31.066Z,85.08
2023-02-19T08:18:35.214Z,84.36
2023-02-19T08:23:38.181Z,83.80
2023-02-19T08:28:41.828Z,82.57
2023-02-19T08:33:44.432Z,81.66
2023-02-19T08:38:47.818Z,81.16
2023-02-19T08:43:50.485Z,80.80
2023-02-19T08:48:53.206Z,80.78
2023-02-19T08:53:55.914Z,81.26
2023-02-19T08:58:58.526Z,81.91
2023-02-19T09:04:01.163Z,82.30
2023-02-19T09:09:03.940Z,82.41
2023-02-19T09:14:07.602Z,81.88
2023-02-19T09:19:10.213Z,81.26
2023-02-19T09:24:13.470Z,80.63
2023-02-19T09:29:21.158Z,79.42
2023-02-19T09:34:25.331Z,79.03
2023-02-19T09:39:29.388Z,78.24
2023-02-19T09:44:38.107Z,76.96
2023-02-19T09:49:49.820Z,76.01
2023-02-19T09:54:57.995Z,74.57
2023-02-19T10:00:07.233Z,74.64
2023-02-19T10:05:18.172Z,74.76
2023-02-19T10:10:27.378Z,74.78
2023-02-19T10:15:38.113Z,73.81
2023-02-19T10:20:40.838Z,72.80
2023-02-19T10:25:54.316Z,71.56
2023-02-19T10:31:00.342Z,69.78
2023-02-19T10:36:06.216Z,70.15
2023-02-19T10:41:23.075Z,69.30
2023-02-19T10:46:29.684Z,68.83
2023-02-19T10:51:35.168Z,69.00
2023-02-19T10:56:40.758Z,65.98
2023-02-19T11:02:04.013Z,64.96
2023-02-19T11:07:13.932Z,61.73
2023-02-19T11:12:33.385Z,63.89
2023-02-19T11:17:36.585Z,61.22
2023-02-19T11:22:41.988Z,60.49
2023-02-19T11:28:06.813Z,59.56
2023-02-19T11:33:24.376Z,59.65
2023-02-19T11:38:27.252Z,58.48
2023-02-19T11:43:53.372Z,57.16
2023-02-19T11:49:27.631Z,57.90
2023-02-19T11:54:39.433Z,56.62
2023-02-19T12:00:01.091Z,55.42
2023-02-19T12:05:20.531Z,54.26
2023-02-19T12:10:55.146Z,54.15
2023-02-19T12:16:04.910Z,55.61
2023-02-19T12:21:18.626Z,55.90
2023-02-19T12:26:30.257Z,53.18
2023-02-19T12:31:58.729Z,53.00
2023-02-19T12:37:33.320Z,52.03
2023-02-19T12:42:54.819Z,52.67
2023-02-19T12:48:06.316Z,52.92
2023-02-19T12:53:51.494Z,51.86
2023-02-19T12:59:01.131Z,51.39
2023-02-19T13:04:39.657Z,51.26
2023-02-19T13:09:55.280Z,51.32
2023-02-19T13:15:02.632Z,51.72
2023-02-19T13:20:20.360Z,52.21
2023-02-19T13:26:00.168Z,51.85
2023-02-19T13:31:11.908Z,50.25
2023-02-19T13:36:24.086Z,50.52
2023-02-19T13:41:27.152Z,50.71
2023-02-19T13:46:46.975Z,50.49
2023-02-19T13:51:57.213Z,51.30
2023-02-19T13:57:29.326Z,52.16
2023-02-19T14:02:35.148Z,52.20
2023-02-19T14:08:03.066Z,51.85
2023-02-19T14:13:10.046Z,52.94
2023-02-19T14:18:43.671Z,54.07
2023-02-19T14:23:56.711Z,54.48
2023-02-19T14:29:01.532Z,55.17
2023-02-19T14:34:14.112Z,55.97
2023-02-19T14:39:40.152Z,56.21
2023-02-19T14:44:57.419Z,56.27
2023-02-19T14:50:04.702Z,56.53
2023-02-19T14:55:20.725Z,56.01
2023-02-19T15:00:43.658Z,53.70
2023-02-19T15:05:46.687Z,54.14
2023-02-19T15:10:50.489Z,54.42
2023-02-19T15:15:55.376Z,54.21
2023-02-19T15:21:03.965Z,53.89
2023-02-19T15:26:21.289Z,53.92
2023-02-19T15:31:24.004Z,54.68
2023-02-19T15:36:33.970Z,55.16
2023-02-19T15:41:36.759Z,56.28
2023-02-19T15:46:41.622Z,56.42
2023-02-19T15:51:57.094Z,56.63
2023-02-19T15:57:06.007Z,56.94
2023-02-19T16:02:13.548Z,57.15
2023-02-19T16:07:32.756Z,57.68
2023-02-19T16:12:35.992Z,58.07
2023-02-19T16:17:43.161Z,58.05
2023-02-19T16:22:45.976Z,58.38
2023-02-19T16:27:48.872Z,58.59
2023-02-19T16:33:21.936Z,59.07
2023-02-19T16:38:24.709Z,59.43
2023-02-19T16:43:44.872Z,59.80
2023-02-19T16:48:48.366Z,60.31
2023-02-19T16:53:51.164Z,60.83
2023-02-19T16:58:53.907Z,61.23
2023-02-19T17:04:02.933Z,61.69
2023-02-19T17:09:09.175Z,62.23
2023-02-19T17:14:13.156Z,62.90
2023-02-19T17:19:18.301Z,63.30
2023-02-19T17:24:20.986Z,63.43
2023-02-19T17:29:24.551Z,62.93
2023-02-19T17:34:30.876Z,62.57
2023-02-19T17:39:33.514Z,62.29
2023-02-19T17:44:36.143Z,61.80
2023-02-19T17:49:38.765Z,61.68
2023-02-19T17:54:42.946Z,61.62
2023-02-19T17:59:45.639Z,61.35
2023-02-19T18:04:48.192Z,61.22
2023-02-19T18:09:50.772Z,61.24
2023-02-19T18:14:54.601Z,61.30
2023-02-19T18:19:57.182Z,61.47
2023-02-19T18:25:00.105Z,61.60
2023-02-19T18:30:03.302Z,61.89
2023-02-19T18:35:06.472Z,62.18
2023-02-19T18:40:11.456Z,62.50
2023-02-19T18:45:14.108Z,62.61
2023-02-19T18:50:18.239Z,63.01
2023-02-19T18:55:23.291Z,63.27
2023-02-19T19:00:26.659Z,63.58
2023-02-19T19:05:29.356Z,63.77
2023-02-19T19:10:31.956Z,63.96
2023-02-19T19:15:35.296Z,64.14
2023-02-19T19:20:37.983Z,64.35
2023-02-19T19:25:40.558Z,64.49
2023-02-19T19:30:43.257Z,64.80
2023-02-19T19:35:45.965Z,64.95
2023-02-19T19:40:48.756Z,65.14
2023-02-19T19:45:51.474Z,65.38
2023-02-19T19:50:56.654Z,65.50
2023-02-19T19:56:01.126Z,65.43
2023-02-19T20:01:07.070Z,65.51
2023-02-19T20:06:10.182Z,65.64
2023-02-19T20:11:13.096Z,65.70
2023-02-19T20:16:16.087Z,66.01
2023-02-19T20:21:18.852Z,66.60
2023-02-19T20:26:27.215Z,67.15
2023-02-19T20:31:33.836Z,67.58
2023-02-19T20:36:44.646Z,67.78
2023-02-19T20:41:50.545Z,68.20
2023-02-19T20:46:54.952Z,68.94
2023-02-19T20:52:00.494Z,69.40
2023-02-19T20:57:05.537Z,69.61
2023-02-19T21:02:16.779Z,70.14
2023-02-19T21:07:20.147Z,70.44
2023-02-19T21:12:23.265Z,70.91
2023-02-19T21:17:26.042Z,71.55
2023-02-19T21:22:31.181Z,73.80
2023-02-19T21:27:34.950Z,75.27
2023-02-19T21:32:37.565Z,76.20
2023-02-19T21:37:43.074Z,77.16
2023-02-19T21:42:46.412Z,77.41
2023-02-19T21:47:52.036Z,77.87
2023-02-19T21:52:55.276Z,78.55
2023-02-19T21:57:58.381Z,78.69
2023-02-19T22:03:01.023Z,78.83
2023-02-19T22:08:03.924Z,79.23
2023-02-19T22:13:06.542Z,79.66
2023-02-19T22:18:09.187Z,79.96
2023-02-19T22:23:11.750Z,80.66
2023-02-19T22:28:14.605Z,81.13
2023-02-19T22:33:17.186Z,81.55
2023-02-19T22:38:20.127Z,81.52
2023-02-19T22:43:22.698Z,81.76
2023-02-19T22:48:30.094Z,82.07
2023-02-19T22:53:33.092Z,82.86
2023-02-19T22:58:35.732Z,83.39
2023-02-19T23:03:55.995Z,83.97
2023-02-19T23:09:04.558Z,84.64
2023-02-19T23:14:07.767Z,84.91
2023-02-19T23:19:13.325Z,85.30
2023-02-19T23:24:17.894Z,84.94
2023-02-19T23:29:25.167Z,85.22
2023-02-19T23:34:28.584Z,85.35
2023-02-19T23:39:31.240Z,86.00
2023-02-19T23:44:33.959Z,86.21
2023-02-19T23:49:36.608Z,87.05
2023-02-19T23:54:39.452Z,88.12
2023-02-19T23:59:42.062Z,88.64
